Time;durP1;ratioP1;P1;durP2;ratioP2;P2;SDS_P1;SDS_P2;PMS_P1;PMS_P2;Temp;Humidity;BMP_temperature;BMP_pressure;BME280_temperature;BME280_humidity;BME280_pressure;Samples;Min_cycle;Max_cycle;Signal;HPM_P1;HPM_P2
2023/07/26 00:00:42;;;;;;;1.98;1.60;;;;;;;;;;7370915;19;20021;-70
2023/07/26 00:03:08;;;;;;;3.22;1.52;;;;;;;;;;7373782;19;20063;-69
2023/07/26 00:05:33;;;;;;;4.90;1.88;;;;;;;;;;7373551;19;20010;-70
2023/07/26 00:07:58;;;;;;;3.88;1.40;;;;;;;;;;7371792;19;20362;-70
2023/07/26 00:10:24;;;;;;;3.40;1.50;;;;;;;;;;7393237;19;20524;-70
2023/07/26 00:12:49;;;;;;;3.15;1.60;;;;;;;;;;7372552;19;20695;-69
2023/07/26 00:15:14;;;;;;;4.45;1.52;;;;;;;;;;7372895;19;20014;-69
2023/07/26 00:17:40;;;;;;;4.95;1.80;;;;;;;;;;7371882;19;20011;-69
2023/07/26 00:20:06;;;;;;;4.75;1.90;;;;;;;;;;7372060;19;20080;-70
2023/07/26 00:22:31;;;;;;;3.63;1.85;;;;;;;;;;7394292;19;20017;-70
2023/07/26 00:24:59;;;;;;;5.07;1.80;;;;;;;;;;7371736;19;20018;-70
2023/07/26 00:27:24;;;;;;;5.47;1.70;;;;;;;;;;7371452;19;20018;-70
2023/07/26 00:29:50;;;;;;;6.05;1.85;;;;;;;;;;7372136;19;20043;-69
2023/07/26 00:32:15;;;;;;;4.18;1.80;;;;;;;;;;7374389;19;20014;-70
2023/07/26 00:34:40;;;;;;;3.83;1.88;;;;;;;;;;7395813;19;20007;-69
2023/07/26 00:37:06;;;;;;;6.38;1.90;;;;;;;;;;7371621;19;20006;-70
2023/07/26 00:39:31;;;;;;;2.97;1.80;;;;;;;;;;7370157;19;20014;-69
2023/07/26 00:41:56;;;;;;;2.42;1.58;;;;;;;;;;7370592;19;20014;-70
2023/07/26 00:44:22;;;;;;;3.55;1.80;;;;;;;;;;7371761;19;20412;-70
2023/07/26 00:46:47;;;;;;;5.25;1.90;;;;;;;;;;7394644;19;20026;-71
2023/07/26 00:49:13;;;;;;;3.35;1.90;;;;;;;;;;7372011;19;20015;-71
2023/07/26 00:51:40;;;;;;;5.70;1.98;;;;;;;;;;7370214;19;20010;-70
2023/07/26 00:54:06;;;;;;;2.35;1.52;;;;;;;;;;7371918;19;20036;-70
2023/07/26 00:56:32;;;;;;;3.88;2.05;;;;;;;;;;7371558;19;20484;-70
2023/07/26 00:58:58;;;;;;;5.72;1.80;;;;;;;;;;7372399;19;20003;-69
2023/07/26 01:01:23;;;;;;;4.88;1.80;;;;;;;;;;7391985;19;20568;-70
2023/07/26 01:03:48;;;;;;;4.10;2.03;;;;;;;;;;7371234;19;20022;-70
2023/07/26 01:06:29;;;;;;;3.05;1.85;;;;;;;;;;7369621;19;20436;-69
2023/07/26 01:09:06;;;;;;;3.20;1.80;;;;;;;;;;7369812;19;20484;-69
2023/07/26 01:11:37;;;;;;;4.10;1.70;;;;;;;;;;7369508;19;20046;-69
2023/07/26 01:14:12;;;;;;;4.32;1.73;;;;;;;;;;7370725;19;19999;-70
2023/07/26 01:16:38;;;;;;;2.92;1.75;;;;;;;;;;7391921;19;20039;-70
2023/07/26 01:19:03;;;;;;;4.95;2.03;;;;;;;;;;7369776;19;20475;-71
2023/07/26 01:21:33;;;;;;;4.47;1.80;;;;;;;;;;7369012;19;20383;-70
2023/07/26 01:23:58;;;;;;;5.22;1.95;;;;;;;;;;7372287;19;20002;-70
2023/07/26 01:26:24;;;;;;;4.55;1.90;;;;;;;;;;7370113;19;20471;-70
2023/07/26 01:28:49;;;;;;;3.15;1.98;;;;;;;;;;7394482;19;19998;-70
2023/07/26 01:31:15;;;;;;;3.83;1.92;;;;;;;;;;7376715;19;20504;-70
2023/07/26 01:33:42;;;;;;;2.35;1.60;;;;;;;;;;7379474;19;20491;-70
2023/07/26 01:36:08;;;;;;;3.88;1.90;;;;;;;;;;7380330;19;20017;-69
2023/07/26 01:38:34;;;;;;;6.43;1.92;;;;;;;;;;7377860;19;20069;-69
2023/07/26 01:41:00;;;;;;;7.30;2.50;;;;;;;;;;7375620;19;20351;-69
2023/07/26 01:43:25;;;;;;;4.15;1.90;;;;;;;;;;7398431;19;20061;-69
2023/07/26 01:45:51;;;;;;;5.05;2.10;;;;;;;;;;7374080;19;20011;-69
2023/07/26 01:48:16;;;;;;;4.50;2.00;;;;;;;;;;7371578;19;20007;-69
2023/07/26 01:50:41;;;;;;;3.67;1.88;;;;;;;;;;7370896;19;20746;-69
2023/07/26 01:53:07;;;;;;;4.53;2.03;;;;;;;;;;7369674;19;20014;-69
2023/07/26 01:55:32;;;;;;;5.35;2.20;;;;;;;;;;7391970;19;20342;-69
2023/07/26 01:57:57;;;;;;;6.30;2.45;;;;;;;;;;7367581;19;20101;-69
2023/07/26 02:00:22;;;;;;;9.40;2.40;;;;;;;;;;7365127;19;20010;-69
2023/07/26 02:02:48;;;;;;;5.53;2.10;;;;;;;;;;7368883;19;20007;-70
2023/07/26 02:05:13;;;;;;;3.03;2.03;;;;;;;;;;7369864;19;20005;-69
2023/07/26 02:07:38;;;;;;;6.47;1.90;;;;;;;;;;7389503;19;20011;-70
2023/07/26 02:10:04;;;;;;;3.42;2.00;;;;;;;;;;7368821;19;20010;-70
2023/07/26 02:12:29;;;;;;;4.82;2.17;;;;;;;;;;7368047;19;20006;-70
2023/07/26 02:14:55;;;;;;;2.83;1.98;;;;;;;;;;7370517;19;20122;-70
2023/07/26 02:17:20;;;;;;;3.05;1.80;;;;;;;;;;7369049;19;20013;-70
2023/07/26 02:19:45;;;;;;;5.72;2.20;;;;;;;;;;7389950;19;19998;-70
2023/07/26 02:22:11;;;;;;;6.35;2.00;;;;;;;;;;7367844;19;20042;-70
2023/07/26 02:24:36;;;;;;;4.93;2.08;;;;;;;;;;7368877;19;20023;-70
2023/07/26 02:27:01;;;;;;;4.93;2.17;;;;;;;;;;7368659;19;20002;-70
2023/07/26 02:29:27;;;;;;;4.85;2.40;;;;;;;;;;7367731;19;20006;-70
2023/07/26 02:31:52;;;;;;;3.70;1.95;;;;;;;;;;7389894;19;20003;-70
2023/07/26 02:34:17;;;;;;;5.93;2.72;;;;;;;;;;7370889;19;20006;-69
2023/07/26 02:36:43;;;;;;;4.75;2.30;;;;;;;;;;7371036;19;20008;-69
2023/07/26 02:39:08;;;;;;;2.72;1.88;;;;;;;;;;7369128;19;20032;-70
2023/07/26 02:41:34;;;;;;;3.17;2.10;;;;;;;;;;7366133;19;20010;-70
2023/07/26 02:43:59;;;;;;;4.07;2.00;;;;;;;;;;7369065;19;20031;-70
2023/07/26 02:46:24;;;;;;;8.52;2.65;;;;;;;;;;7388692;19;20002;-70
2023/07/26 02:48:50;;;;;;;3.05;2.00;;;;;;;;;;7366200;19;20015;-70
2023/07/26 02:51:15;;;;;;;3.80;2.10;;;;;;;;;;7366773;19;20006;-69
2023/07/26 02:53:40;;;;;;;7.18;2.22;;;;;;;;;;7367853;19;20070;-70
2023/07/26 02:56:05;;;;;;;3.88;1.90;;;;;;;;;;7367531;19;20037;-70
2023/07/26 02:58:31;;;;;;;3.25;2.00;;;;;;;;;;7387946;19;19999;-69
2023/07/26 03:00:56;;;;;;;6.07;2.10;;;;;;;;;;7366012;19;20044;-69
2023/07/26 03:03:21;;;;;;;3.00;1.70;;;;;;;;;;7369146;19;20011;-69
2023/07/26 03:05:47;;;;;;;4.18;2.30;;;;;;;;;;7369456;19;20830;-70
2023/07/26 03:08:12;;;;;;;3.67;2.08;;;;;;;;;;7367968;19;20464;-71
2023/07/26 03:10:38;;;;;;;5.20;2.10;;;;;;;;;;7388649;19;20002;-71
2023/07/26 03:13:03;;;;;;;3.83;2.20;;;;;;;;;;7366087;19;20003;-69
2023/07/26 03:15:30;;;;;;;5.10;2.05;;;;;;;;;;7367298;19;20014;-69
2023/07/26 03:17:55;;;;;;;3.92;2.15;;;;;;;;;;7366652;19;20110;-70
2023/07/26 03:20:20;;;;;;;4.57;1.80;;;;;;;;;;7365371;19;20021;-69
2023/07/26 03:22:46;;;;;;;5.63;2.17;;;;;;;;;;7388287;19;20108;-70
2023/07/26 03:25:11;;;;;;;4.53;2.30;;;;;;;;;;7366157;19;21035;-70
2023/07/26 03:27:36;;;;;;;5.13;2.10;;;;;;;;;;7365345;19;20026;-69
2023/07/26 03:30:02;;;;;;;4.13;1.90;;;;;;;;;;7370088;19;20027;-69
2023/07/26 03:32:28;;;;;;;4.15;2.13;;;;;;;;;;7374200;19;20007;-69
2023/07/26 03:34:53;;;;;;;7.72;2.33;;;;;;;;;;7395352;19;20022;-69
2023/07/26 03:37:18;;;;;;;5.97;2.05;;;;;;;;;;7372134;19;20011;-70
2023/07/26 03:39:43;;;;;;;3.33;2.05;;;;;;;;;;7372253;19;20014;-70
2023/07/26 03:42:09;;;;;;;10.63;2.83;;;;;;;;;;7372394;19;20422;-70
2023/07/26 03:44:34;;;;;;;5.70;2.20;;;;;;;;;;7374200;19;20393;-70
2023/07/26 03:46:59;;;;;;;6.25;2.00;;;;;;;;;;7373659;19;20005;-69
2023/07/26 03:49:25;;;;;;;4.25;2.30;;;;;;;;;;7395064;19;20007;-70
2023/07/26 03:51:50;;;;;;;4.70;2.50;;;;;;;;;;7372119;19;20464;-70
2023/07/26 03:54:15;;;;;;;7.30;2.45;;;;;;;;;;7373931;19;20006;-70
2023/07/26 03:56:41;;;;;;;5.68;2.28;;;;;;;;;;7373434;19;20011;-70
2023/07/26 03:59:06;;;;;;;5.03;2.00;;;;;;;;;;7373142;19;20035;-70
2023/07/26 04:01:31;;;;;;;6.10;2.28;;;;;;;;;;7386316;19;20009;-70
2023/07/26 04:03:57;;;;;;;7.00;2.30;;;;;;;;;;7371767;19;20014;-69
2023/07/26 04:06:22;;;;;;;4.60;2.05;;;;;;;;;;7371166;19;20017;-69
2023/07/26 04:08:47;;;;;;;4.47;2.00;;;;;;;;;;7370656;19;20014;-70
2023/07/26 04:11:13;;;;;;;4.45;2.00;;;;;;;;;;7372332;19;19995;-69
2023/07/26 04:13:38;;;;;;;3.03;1.95;;;;;;;;;;7391583;19;20555;-70
2023/07/26 04:16:15;;;;;;;5.13;2.33;;;;;;;;;;7371249;19;20011;-70
2023/07/26 04:18:41;;;;;;;3.67;2.08;;;;;;;;;;7370301;19;20044;-70
2023/07/26 04:21:06;;;;;;;6.07;2.00;;;;;;;;;;7367936;19;20014;-69
2023/07/26 04:23:31;;;;;;;4.72;2.20;;;;;;;;;;7373110;19;20006;-69
2023/07/26 04:25:57;;;;;;;6.13;2.20;;;;;;;;;;7380807;19;20030;-68
2023/07/26 04:28:22;;;;;;;5.40;2.08;;;;;;;;;;7389380;19;20006;-68
2023/07/26 04:30:48;;;;;;;5.22;2.40;;;;;;;;;;7372066;19;20027;-64
2023/07/26 04:33:14;;;;;;;3.70;2.30;;;;;;;;;;7370974;19;20373;-64
2023/07/26 04:35:39;;;;;;;3.53;2.10;;;;;;;;;;7370391;19;20074;-64
2023/07/26 04:38:05;;;;;;;7.38;2.20;;;;;;;;;;7370036;19;20703;-66
2023/07/26 04:40:30;;;;;;;6.18;2.20;;;;;;;;;;7390726;19;20007;-66
2023/07/26 04:42:55;;;;;;;5.88;2.33;;;;;;;;;;7369308;19;20006;-65
2023/07/26 04:45:21;;;;;;;6.18;2.25;;;;;;;;;;7372606;19;20328;-66
2023/07/26 04:47:46;;;;;;;5.78;2.50;;;;;;;;;;7371313;19;20074;-66
2023/07/26 04:50:11;;;;;;;6.95;2.50;;;;;;;;;;7371677;19;20027;-66
2023/07/26 04:52:37;;;;;;;3.28;2.20;;;;;;;;;;7387132;19;20002;-65
2023/07/26 04:55:05;;;;;;;3.83;2.40;;;;;;;;;;7370199;19;20011;-64
2023/07/26 04:57:31;;;;;;;5.00;2.40;;;;;;;;;;7367436;19;20315;-64
2023/07/26 04:59:56;;;;;;;4.88;2.38;;;;;;;;;;7369110;19;20170;-64
2023/07/26 05:02:22;;;;;;;4.43;2.33;;;;;;;;;;7368524;19;20018;-68
2023/07/26 05:04:47;;;;;;;4.95;2.42;;;;;;;;;;7389250;19;20015;-68
2023/07/26 05:07:12;;;;;;;5.93;2.80;;;;;;;;;;7370616;19;20010;-68
2023/07/26 05:09:38;;;;;;;6.07;2.25;;;;;;;;;;7369117;19;20013;-68
2023/07/26 05:12:03;;;;;;;5.40;2.40;;;;;;;;;;7370989;19;20010;-68
2023/07/26 05:14:29;;;;;;;4.13;2.05;;;;;;;;;;7372074;19;20037;-69
2023/07/26 05:16:54;;;;;;;5.53;2.55;;;;;;;;;;7393284;19;20524;-68
2023/07/26 05:19:19;;;;;;;5.38;2.40;;;;;;;;;;7370446;19;20039;-68
2023/07/26 05:21:45;;;;;;;4.68;2.40;;;;;;;;;;7369504;19;20010;-68
2023/07/26 05:24:10;;;;;;;5.38;2.50;;;;;;;;;;7371010;19;20033;-68
2023/07/26 05:26:35;;;;;;;5.13;2.42;;;;;;;;;;7370739;19;20038;-68
2023/07/26 05:29:00;;;;;;;6.93;2.50;;;;;;;;;;7371735;19;20002;-68
2023/07/26 05:31:26;;;;;;;5.72;2.60;;;;;;;;;;7392645;19;20002;-69
2023/07/26 05:33:51;;;;;;;8.07;2.75;;;;;;;;;;7372617;19;20035;-68
2023/07/26 05:36:16;;;;;;;8.90;2.72;;;;;;;;;;7374767;19;20088;-68
2023/07/26 05:38:42;;;;;;;6.50;2.30;;;;;;;;;;7376226;19;20086;-67
2023/07/26 05:41:07;;;;;;;5.85;2.85;;;;;;;;;;7370270;19;20106;-70
2023/07/26 05:43:32;;;;;;;4.53;2.35;;;;;;;;;;7393006;19;20314;-68
2023/07/26 05:46:00;;;;;;;7.22;2.58;;;;;;;;;;7370666;19;20047;-68
2023/07/26 05:48:26;;;;;;;5.65;2.63;;;;;;;;;;7374893;19;20006;-68
2023/07/26 05:50:51;;;;;;;5.90;2.55;;;;;;;;;;7369883;19;20013;-69
2023/07/26 05:53:16;;;;;;;8.60;3.00;;;;;;;;;;7369593;19;20469;-68
2023/07/26 05:55:42;;;;;;;6.55;2.42;;;;;;;;;;7392597;19;20017;-68
2023/07/26 05:58:07;;;;;;;4.18;2.20;;;;;;;;;;7367801;19;20495;-68
2023/07/26 06:00:32;;;;;;;4.80;2.20;;;;;;;;;;7369343;19;20484;-68
2023/07/26 06:02:58;;;;;;;6.07;2.42;;;;;;;;;;7371655;19;20034;-68
2023/07/26 06:05:24;;;;;;;7.85;2.58;;;;;;;;;;7371538;19;20420;-69
2023/07/26 06:07:50;;;;;;;8.75;2.53;;;;;;;;;;7392809;19;20037;-69
2023/07/26 06:10:16;;;;;;;5.32;2.35;;;;;;;;;;7373329;19;20010;-69
2023/07/26 06:12:41;;;;;;;6.97;2.50;;;;;;;;;;7373102;19;20547;-69
2023/07/26 06:15:07;;;;;;;5.05;2.60;;;;;;;;;;7375973;19;20003;-69
2023/07/26 06:17:33;;;;;;;4.15;2.28;;;;;;;;;;7381334;19;20023;-68
2023/07/26 06:19:58;;;;;;;4.13;2.40;;;;;;;;;;7380301;19;20077;-69
2023/07/26 06:22:23;;;;;;;3.42;2.20;;;;;;;;;;7400511;19;20028;-68
2023/07/26 06:24:49;;;;;;;5.38;2.40;;;;;;;;;;7372779;19;20116;-68
2023/07/26 06:27:23;;;;;;;4.00;2.35;;;;;;;;;;7370151;19;20012;-69
2023/07/26 06:29:48;;;;;;;6.03;2.35;;;;;;;;;;7369324;19;20054;-68
2023/07/26 06:32:14;;;;;;;6.43;2.45;;;;;;;;;;7368334;19;20002;-70
2023/07/26 06:34:39;;;;;;;3.95;2.10;;;;;;;;;;7390408;19;20006;-68
2023/07/26 06:37:05;;;;;;;6.72;2.38;;;;;;;;;;7368407;19;20016;-69
2023/07/26 06:39:30;;;;;;;5.03;2.20;;;;;;;;;;7367936;19;20010;-69
2023/07/26 06:41:55;;;;;;;4.50;2.30;;;;;;;;;;7368510;19;20014;-69
2023/07/26 06:44:20;;;;;;;3.47;2.30;;;;;;;;;;7368792;19;20034;-69
2023/07/26 06:46:46;;;;;;;2.70;1.90;;;;;;;;;;7390952;19;20003;-69
2023/07/26 06:49:11;;;;;;;5.93;2.55;;;;;;;;;;7368984;19;20013;-70
2023/07/26 06:51:36;;;;;;;4.25;2.25;;;;;;;;;;7369169;19;20028;-69
2023/07/26 06:54:02;;;;;;;3.63;2.17;;;;;;;;;;7370072;19;20034;-69
2023/07/26 06:56:27;;;;;;;4.82;2.20;;;;;;;;;;7369632;19;20011;-69
2023/07/26 06:58:53;;;;;;;4.35;2.08;;;;;;;;;;7390614;19;20136;-69
2023/07/26 07:01:19;;;;;;;4.57;2.22;;;;;;;;;;7369154;19;20021;-69
2023/07/26 07:03:44;;;;;;;5.30;2.70;;;;;;;;;;7368803;19;20488;-69
2023/07/26 07:06:09;;;;;;;3.85;2.35;;;;;;;;;;7366861;19;20432;-69
2023/07/26 07:08:36;;;;;;;5.30;2.35;;;;;;;;;;7367592;19;20031;-69
2023/07/26 07:11:01;;;;;;;5.57;2.38;;;;;;;;;;7367815;19;20004;-71
2023/07/26 07:13:27;;;;;;;5.22;2.33;;;;;;;;;;7389750;19;20015;-69
2023/07/26 07:15:52;;;;;;;14.85;3.15;;;;;;;;;;7367640;19;20482;-71
2023/07/26 07:18:17;;;;;;;4.75;2.30;;;;;;;;;;7367193;19;20399;-70
2023/07/26 07:20:43;;;;;;;4.15;2.05;;;;;;;;;;7364952;19;20552;-70
2023/07/26 07:23:09;;;;;;;5.20;2.28;;;;;;;;;;7369767;19;19999;-70
2023/07/26 07:25:37;;;;;;;3.40;2.20;;;;;;;;;;7388851;19;20003;-70
2023/07/26 07:28:03;;;;;;;6.03;2.25;;;;;;;;;;7366317;19;20011;-70
2023/07/26 07:30:28;;;;;;;3.95;2.35;;;;;;;;;;7366501;19;20010;-69
2023/07/26 07:32:54;;;;;;;4.90;2.28;;;;;;;;;;7367585;19;20010;-70
2023/07/26 07:35:19;;;;;;;5.22;2.30;;;;;;;;;;7367394;19;20007;-70
2023/07/26 07:37:44;;;;;;;4.97;2.13;;;;;;;;;;7389807;19;20547;-70
2023/07/26 07:40:11;;;;;;;4.82;2.22;;;;;;;;;;7366703;19;20015;-70
2023/07/26 07:42:36;;;;;;;3.78;2.20;;;;;;;;;;7367328;19;20011;-70
2023/07/26 07:45:03;;;;;;;5.95;2.20;;;;;;;;;;7367841;19;20011;-70
2023/07/26 07:47:28;;;;;;;6.43;2.40;;;;;;;;;;7368407;19;20487;-70
2023/07/26 07:49:54;;;;;;;4.68;2.10;;;;;;;;;;7389904;19;20002;-69
2023/07/26 07:52:20;;;;;;;3.67;2.00;;;;;;;;;;7367772;19;20720;-69
2023/07/26 07:54:45;;;;;;;4.95;2.25;;;;;;;;;;7365198;19;20006;-70
2023/07/26 07:57:11;;;;;;;4.65;2.10;;;;;;;;;;7367292;19;20009;-70
2023/07/26 07:59:36;;;;;;;4.03;2.08;;;;;;;;;;7364458;19;20007;-70
2023/07/26 08:02:01;;;;;;;4.03;2.10;;;;;;;;;;7369503;19;20006;-70
2023/07/26 08:04:27;;;;;;;3.90;2.20;;;;;;;;;;7389432;19;20427;-70
2023/07/26 08:06:52;;;;;;;5.13;2.00;;;;;;;;;;7367361;19;20579;-69
2023/07/26 08:09:18;;;;;;;6.65;2.20;;;;;;;;;;7374704;19;20031;-70
2023/07/26 08:11:43;;;;;;;5.55;2.08;;;;;;;;;;7372517;19;20038;-69
2023/07/26 08:14:08;;;;;;;4.20;2.13;;;;;;;;;;7367953;19;19999;-70
2023/07/26 08:16:34;;;;;;;4.15;1.95;;;;;;;;;;7392817;19;20014;-69
2023/07/26 08:19:01;;;;;;;5.63;2.20;;;;;;;;;;7359975;19;20010;-69
2023/07/26 08:21:26;;;;;;;6.65;2.13;;;;;;;;;;7366595;19;20742;-70
2023/07/26 08:23:52;;;;;;;4.30;2.13;;;;;;;;;;7370871;19;20017;-71
2023/07/26 08:26:17;;;;;;;4.00;1.98;;;;;;;;;;7372318;19;20018;-70
2023/07/26 08:28:42;;;;;;;4.65;1.80;;;;;;;;;;7389912;19;20003;-70
2023/07/26 08:31:08;;;;;;;2.92;1.90;;;;;;;;;;7370043;19;20017;-70
2023/07/26 08:33:33;;;;;;;3.95;1.80;;;;;;;;;;7372566;19;20018;-70
2023/07/26 08:35:58;;;;;;;5.00;1.95;;;;;;;;;;7371120;19;20022;-70
2023/07/26 08:38:24;;;;;;;3.58;2.08;;;;;;;;;;7369835;19;20029;-70
2023/07/26 08:40:50;;;;;;;4.75;2.10;;;;;;;;;;7392379;19;20014;-71
2023/07/26 08:43:18;;;;;;;3.53;1.80;;;;;;;;;;7372574;19;20018;-70
2023/07/26 08:45:44;;;;;;;5.78;1.85;;;;;;;;;;7369528;19;20018;-70
2023/07/26 08:48:10;;;;;;;7.22;1.92;;;;;;;;;;7368698;19;20129;-71
2023/07/26 08:50:38;;;;;;;4.78;2.03;;;;;;;;;;7370035;19;20372;-70
2023/07/26 08:53:07;;;;;;;7.43;2.20;;;;;;;;;;7370154;19;20007;-71
2023/07/26 08:55:33;;;;;;;3.92;2.00;;;;;;;;;;7390086;19;20017;-64
2023/07/26 08:57:59;;;;;;;3.22;1.92;;;;;;;;;;7356797;19;20009;-63
2023/07/26 09:00:26;;;;;;;3.35;1.90;;;;;;;;;;7365578;19;20028;-63
2023/07/26 09:02:58;;;;;;;5.40;2.00;;;;;;;;;;7367481;19;20027;-62
2023/07/26 09:05:23;;;;;;;4.90;2.10;;;;;;;;;;7370771;19;20014;-63
2023/07/26 09:07:52;;;;;;;3.25;1.90;;;;;;;;;;7389857;19;20359;-63
2023/07/26 09:10:23;;;;;;;4.03;1.92;;;;;;;;;;7367516;19;20017;-63
2023/07/26 09:12:50;;;;;;;4.53;2.45;;;;;;;;;;7366982;19;20132;-63
2023/07/26 09:15:18;;;;;;;4.43;2.10;;;;;;;;;;7366992;19;20014;-64
2023/07/26 09:17:43;;;;;;;5.25;2.30;;;;;;;;;;7367173;19;20023;-63
2023/07/26 09:20:24;;;;;;;5.20;2.25;;;;;;;;;;7366965;19;20010;-63
2023/07/26 09:22:58;;;;;;;;;;;;;;;;;;7392134;19;20018;-62
2023/07/26 09:25:31;;;;;;;;;;;;;;;;;;7367495;19;19928;-63
2023/07/26 09:27:58;;;;;;;;;;;;;;;;;;7364372;19;19923;-64
2023/07/26 09:30:24;;;;;;;;;;;;;;;;;;7369473;19;19927;-63
2023/07/26 09:32:49;;;;;;;;;;;;;;;;;;7369483;19;20553;-64
2023/07/26 09:35:14;;;;;;;;;;;;;;;;;;7366585;19;19910;-64
2023/07/26 09:37:40;;;;;;;;;;;;;;;;;;7391149;19;20334;-64
2023/07/26 09:40:05;;;;;;;;;;;;;;;;;;7368164;19;20428;-64
2023/07/26 09:42:43;;;;;;;;;;;;;;;;;;7369955;19;19923;-65
2023/07/26 09:45:18;;;;;;;;;;;;;;;;;;7364129;19;19910;-66
2023/07/26 09:47:44;;;;;;;;;;;;;;;;;;7366261;19;19957;-66
2023/07/26 09:50:28;;;;;;;;;;;;;;;;;;7369145;19;20829;-73
2023/07/26 09:52:54;;;;;;;;;;;;;;;;;;7390002;19;20265;-73
2023/07/26 09:55:24;;;;;;;;;;;;;;;;;;7368179;19;20408;-73
2023/07/26 09:57:50;;;;;;;;;;;;;;;;;;7363902;19;19911;-74
2023/07/26 10:00:16;;;;;;;;;;;;;;;;;;7366546;19;19923;-73
2023/07/26 10:02:41;;;;;;;;;;;;;;;;;;7369354;19;19915;-73
2023/07/26 10:05:08;;;;;;;;;;;;;;;;;;7367561;19;19964;-74
2023/07/26 10:07:34;;;;;;;;;;;;;;;;;;7385722;19;19926;-73
2023/07/26 10:10:01;;;;;;;;;;;;;;;;;;7366471;19;19950;-74
2023/07/26 10:12:29;;;;;;;;;;;;;;;;;;7362198;19;20764;-75
2023/07/26 10:14:55;;;;;;;;;;;;;;;;;;7365266;19;20349;-72
2023/07/26 10:17:21;;;;;;;;;;;;;;;;;;7367139;19;19935;-72
2023/07/26 10:19:47;;;;;;;;;;;;;;;;;;7388925;19;19915;-72
2023/07/26 10:22:13;;;;;;;;;;;;;;;;;;7367621;19;19943;-74
2023/07/26 10:24:40;;;;;;;;;;;;;;;;;;7366753;19;19983;-74
2023/07/26 10:27:06;;;;;;;;;;;;;;;;;;7367485;19;20309;-74
2023/07/26 10:29:31;;;;;;;;;;;;;;;;;;7363940;19;19950;-73
2023/07/26 10:32:06;;;;;;;;;;;;;;;;;;7381042;19;19953;-74
2023/07/26 10:34:32;;;;;;;;;;;;;;;;;;7385673;19;19918;-73
2023/07/26 10:36:57;;;;;;;;;;;;;;;;;;7369355;19;19938;-73
2023/07/26 10:39:32;;;;;;;;;;;;;;;;;;7370825;19;19918;-74
2023/07/26 10:41:58;;;;;;;;;;;;;;;;;;7368822;19;19978;-75
2023/07/26 10:44:23;;;;;;;;;;;;;;;;;;7369528;19;19944;-75
2023/07/26 10:46:50;;;;;;;;;;;;;;;;;;7379330;19;19926;-75
2023/07/26 10:49:20;;;;;;;;;;;;;;;;;;7368004;19;19914;-73
2023/07/26 10:51:52;;;;;;;;;;;;;;;;;;7365946;19;20282;-74
2023/07/26 10:54:33;;;;;;;;;;;;;;;;;;7367868;19;19955;-73
2023/07/26 10:57:17;;;;;;;;;;;;;;;;;;7368980;19;19911;-74
2023/07/26 10:59:50;;;;;;;;;;;;;;;;;;7367230;19;19919;-74
2023/07/26 11:02:15;;;;;;;;;;;;;;;;;;7362785;19;19915;-73
2023/07/26 11:04:44;;;;;;;;;;;;;;;;;;7385735;19;20385;-73
2023/07/26 11:07:11;;;;;;;;;;;;;;;;;;7365054;19;19922;-73
2023/07/26 11:09:36;;;;;;;;;;;;;;;;;;7364474;19;19914;-74
2023/07/26 11:12:02;;;;;;;;;;;;;;;;;;7365453;19;19946;-74
2023/07/26 11:14:32;;;;;;;;;;;;;;;;;;7368029;19;19978;-73
2023/07/26 11:16:59;;;;;;;;;;;;;;;;;;7371865;19;19935;-76
2023/07/26 11:19:24;;;;;;;;;;;;;;;;;;7388033;19;19925;-72
2023/07/26 11:21:50;;;;;;;;;;;;;;;;;;7362610;19;19911;-74
2023/07/26 11:24:15;;;;;;;;;;;;;;;;;;7369144;19;20537;-74
2023/07/26 11:26:44;;;;;;;;;;;;;;;;;;7368080;19;19927;-72
2023/07/26 11:29:11;;;;;;;;;;;;;;;;;;7365942;19;19926;-72
2023/07/26 11:31:36;;;;;;;;;;;;;;;;;;7385453;19;19919;-73
2023/07/26 11:34:15;;;;;;;;;;;;;;;;;;7361191;19;19918;-72
2023/07/26 11:36:41;;;;;;;;;;;;;;;;;;7362215;19;20916;-72
2023/07/26 11:39:06;;;;;;;;;;;;;;;;;;7363617;19;19922;-67
2023/07/26 11:41:31;;;;;;;;;;;;;;;;;;7365289;19;19914;-66
2023/07/26 11:43:58;;;;;;;;;;;;;;;;;;7375778;19;19985;-68
2023/07/26 11:46:27;;;;;;;;;;;;;;;;;;7388647;19;19919;-67
2023/07/26 11:48:53;;;;;;;;;;;;;;;;;;7362067;19;20280;-67
2023/07/26 11:51:19;;;;;;;;;;;;;;;;;;7364455;19;19910;-66
2023/07/26 11:53:44;;;;;;;;;;;;;;;;;;7371292;19;19922;-66
2023/07/26 11:56:09;;;;;;;;;;;;;;;;;;7372382;19;19982;-67
2023/07/26 11:58:35;;;;;;;;;;;;;;;;;;7387642;19;19922;-67
2023/07/26 12:01:02;;;;;;;;;;;;;;;;;;7364264;19;19915;-68
2023/07/26 12:03:27;;;;;;;;;;;;;;;;;;7371292;19;19974;-66
2023/07/26 12:05:53;;;;;;;;;;;;;;;;;;7372576;19;19955;-66
2023/07/26 12:08:18;;;;;;;;;;;;;;;;;;7364863;19;19927;-66
2023/07/26 12:10:45;;;;;;;;;;;;;;;;;;7392135;19;20351;-67
2023/07/26 12:13:20;;;;;;;;;;;;;;;;;;7372767;19;19952;-66
2023/07/26 12:15:53;;;;;;;;;;;;;;;;;;7366492;19;19910;-66
2023/07/26 12:18:18;;;;;;;;;;;;;;;;;;7369864;19;19910;-66
2023/07/26 12:20:59;;;;;;;;;;;;;;;;;;7370276;19;20425;-65
2023/07/26 12:23:28;;;;;;;;;;;;;;;;;;7374291;19;20512;-65
2023/07/26 12:25:56;;;;;;;;;;;;;;;;;;7391843;19;19926;-66
2023/07/26 12:28:21;;;;;;;;;;;;;;;;;;7369824;19;20548;-66
2023/07/26 12:30:53;;;;;;;;;;;;;;;;;;7369412;19;19932;-66
2023/07/26 12:33:18;;;;;;;;;;;;;;;;;;7371387;19;19914;-66
2023/07/26 12:35:44;;;;;;;;;;;;;;;;;;7370991;19;19938;-66
2023/07/26 12:38:13;;;;;;;;;;;;;;;;;;7366846;19;19954;-66
2023/07/26 12:40:38;;;;;;;;;;;;;;;;;;7389039;19;20323;-66
2023/07/26 12:43:20;;;;;;;;;;;;;;;;;;7366147;19;19924;-65
2023/07/26 12:45:45;;;;;;;;;;;;;;;;;;7369230;19;19950;-64
2023/07/26 12:48:10;;;;;;;;;;;;;;;;;;7370594;19;20326;-66
2023/07/26 12:50:35;;;;;;;;;;;;;;;;;;7369394;19;19926;-65
2023/07/26 12:53:01;;;;;;;;;;;;;;;;;;7367583;19;20158;-67
2023/07/26 12:55:26;;;;;;;;;;;;;;;;;;7390723;19;19922;-66
2023/07/26 12:57:51;;;;;;;;;;;;;;;;;;7365602;19;19969;-65
2023/07/26 13:00:16;;;;;;;;;;;;;;;;;;7365521;19;19918;-65
2023/07/26 13:02:42;;;;;;;;;;;;;;;;;;7363104;19;19918;-65
2023/07/26 13:05:07;;;;;;;;;;;;;;;;;;7373805;19;19907;-65
2023/07/26 13:07:32;;;;;;;;;;;;;;;;;;7388020;19;19924;-64
2023/07/26 13:09:59;;;;;;;;;;;;;;;;;;7371142;19;19919;-65
2023/07/26 13:12:24;;;;;;;;;;;;;;;;;;7372156;19;19918;-65
2023/07/26 13:14:50;;;;;;;;;;;;;;;;;;7369914;19;19950;-65
2023/07/26 13:17:15;;;;;;;;;;;;;;;;;;7368294;19;19928;-65
2023/07/26 13:19:40;;;;;;;;;;;;;;;;;;7391585;19;19973;-66
2023/07/26 13:22:05;;;;;;;;;;;;;;;;;;7370754;19;20543;-66
2023/07/26 13:24:31;;;;;;;;;;;;;;;;;;7372299;19;19922;-66
2023/07/26 13:26:57;;;;;;;;;;;;;;;;;;7365434;19;19923;-65
2023/07/26 13:29:22;;;;;;;;;;;;;;;;;;7373023;19;19914;-65
2023/07/26 13:31:48;;;;;;;;;;;;;;;;;;7388291;19;19926;-64
2023/07/26 13:34:13;;;;;;;;;;;;;;;;;;7368557;19;19951;-64
2023/07/26 13:36:38;;;;;;;;;;;;;;;;;;7362907;19;19936;-64
2023/07/26 13:39:06;;;;;;;;;;;;;;;;;;7366635;19;19927;-64
2023/07/26 13:41:31;;;;;;;;;;;;;;;;;;7365922;19;19911;-65
2023/07/26 13:43:56;;;;;;;;;;;;;;;;;;7380802;19;19919;-66
2023/07/26 13:46:21;;;;;;;;;;;;;;;;;;7378803;19;20385;-66
2023/07/26 13:48:47;;;;;;;;;;;;;;;;;;7367348;19;20624;-65
2023/07/26 13:51:12;;;;;;;;;;;;;;;;;;7362021;19;20313;-65
2023/07/26 13:53:37;;;;;;;;;;;;;;;;;;7370776;19;19918;-65
2023/07/26 13:56:02;;;;;;;;;;;;;;;;;;7365544;19;19986;-66
2023/07/26 13:58:28;;;;;;;;;;;;;;;;;;7380560;19;20277;-64
2023/07/26 14:00:53;;;;;;;;;;;;;;;;;;7354181;19;20006;-65
2023/07/26 14:06:22;;;;;;;;;;;;;;;;;;7364761;19;19988;-64
2023/07/26 14:08:47;;;;;;;;;;;;;;;;;;7367011;19;19930;-63
2023/07/26 14:11:13;;;;;;;;;;;;;;;;;;7370674;19;19915;-64
2023/07/26 14:13:39;;;;;;;;;;;;;;;;;;7391653;19;19919;-64
2023/07/26 14:16:05;;;;;;;;;;;;;;;;;;7370293;19;19922;-64
2023/07/26 14:18:30;;;;;;;;;;;;;;;;;;7369125;19;19953;-63
2023/07/26 14:20:55;;;;;;;;;;;;;;;;;;7367361;19;19986;-64
2023/07/26 14:23:21;;;;;;;;;;;;;;;;;;7371451;19;20023;-64
2023/07/26 14:25:46;;;;;;;;;;;;;;;;;;7391722;19;19935;-64
2023/07/26 14:28:11;;;;;;;;;;;;;;;;;;7368218;19;19922;-65
2023/07/26 14:30:37;;;;;;;;;;;;;;;;;;7369241;19;19989;-64
2023/07/26 14:33:02;;;;;;;;;;;;;;;;;;7369255;19;19979;-72
2023/07/26 14:35:27;;;;;;;;;;;;;;;;;;7368753;19;19926;-71
2023/07/26 14:37:53;;;;;;;;;;;;;;;;;;7390538;19;20555;-70
2023/07/26 14:40:18;;;;;;;;;;;;;;;;;;7367791;19;19919;-69
2023/07/26 14:42:43;;;;;;;;;;;;;;;;;;7367664;19;19951;-69
2023/07/26 14:45:09;;;;;;;;;;;;;;;;;;7370720;19;19922;-72
2023/07/26 14:47:34;;;;;;;;;;;;;;;;;;7369192;19;19990;-69
2023/07/26 14:49:59;;;;;;;;;;;;;;;;;;7370020;19;19954;-71
2023/07/26 14:52:24;;;;;;;;;;;;;;;;;;7392209;19;20270;-70
2023/07/26 14:54:50;;;;;;;;;;;;;;;;;;7371003;19;19922;-70
2023/07/26 14:57:15;;;;;;;;;;;;;;;;;;7370436;19;19978;-71
2023/07/26 14:59:41;;;;;;;;;;;;;;;;;;7371038;19;20345;-71
2023/07/26 15:02:07;;;;;;;;;;;;;;;;;;7372216;19;20282;-71
2023/07/26 15:04:32;;;;;;;;;;;;;;;;;;7393856;19;19919;-69
2023/07/26 15:06:57;;;;;;;;;;;;;;;;;;7370317;19;20258;-69
2023/07/26 15:09:23;;;;;;;;;;;;;;;;;;7369437;19;19925;-70
2023/07/26 15:11:48;;;;;;;;;;;;;;;;;;7369674;19;19953;-70
2023/07/26 15:14:13;;;;;;;;;;;;;;;;;;7370057;19;19915;-69
2023/07/26 15:16:38;;;;;;;;;;;;;;;;;;7391110;19;19939;-70
2023/07/26 15:19:03;;;;;;;;;;;;;;;;;;7369654;19;19926;-70
2023/07/26 15:21:29;;;;;;;;;;;;;;;;;;7368150;19;19954;-71
2023/07/26 15:23:54;;;;;;;;;;;;;;;;;;7369373;19;19982;-71